createdAt,value
2017-11-21T00:00:59.888Z,84.90
2017-11-21T00:03:27.351Z,84.70
2017-11-21T00:40:23.280Z,86.50
2017-11-21T00:42:50.773Z,86.80
2017-11-21T00:45:18.230Z,86.90
2017-11-21T00:47:45.725Z,86.90
2017-11-21T00:50:13.970Z,86.90
2017-11-21T00:52:41.423Z,86.90
2017-11-21T00:55:09.001Z,87.00
2017-11-21T00:57:36.466Z,86.50
2017-11-21T01:00:03.950Z,86.50
2017-11-21T01:02:32.232Z,86.50
2017-11-21T01:04:59.699Z,86.60
2017-11-21T01:07:27.214Z,86.50
2017-11-21T01:09:54.668Z,86.50
2017-11-21T01:12:22.147Z,86.70
2017-11-21T01:14:50.372Z,86.50
2017-11-21T01:17:17.869Z,86.50
2017-11-21T01:19:45.335Z,86.50
2017-11-21T01:22:12.813Z,86.60
2017-11-21T01:24:40.320Z,86.60
2017-11-21T01:27:07.818Z,86.50
2017-11-21T01:29:36.032Z,86.70
2017-11-21T01:32:03.529Z,86.70
2017-11-21T01:34:31.011Z,86.60
2017-11-21T01:36:58.464Z,86.30
2017-11-21T01:39:26.721Z,86.60
2017-11-21T01:41:54.181Z,86.50
2017-11-21T01:44:21.705Z,86.80
2017-11-21T01:46:49.180Z,87.00
2017-11-21T01:49:16.650Z,87.10
2017-11-21T01:51:44.153Z,87.10
2017-11-21T01:54:11.620Z,87.00
2017-11-21T01:56:39.101Z,86.90
2017-11-21T01:59:06.565Z,86.60
2017-11-21T02:01:34.022Z,86.80
2017-11-21T02:04:01.501Z,87.00
2017-11-21T02:06:28.963Z,87.00
2017-11-21T02:08:56.459Z,86.90
2017-11-21T02:11:23.923Z,87.00
2017-11-21T02:13:51.408Z,86.80
2017-11-21T02:16:18.872Z,87.00
2017-11-21T02:18:46.364Z,87.10
2017-11-21T02:21:13.828Z,87.10
2017-11-21T02:23:41.285Z,87.00
2017-11-21T02:26:08.792Z,86.80
2017-11-21T02:28:36.253Z,87.10
2017-11-21T02:31:03.713Z,87.10
2017-11-21T02:33:31.201Z,87.10
2017-11-21T02:35:58.665Z,87.10
2017-11-21T02:38:26.151Z,87.00
2017-11-21T02:40:54.380Z,87.00
2017-11-21T02:43:21.853Z,87.00
2017-11-21T02:45:49.364Z,87.10
2017-11-21T02:48:16.854Z,87.10
2017-11-21T02:50:44.349Z,87.40
2017-11-21T02:53:11.873Z,87.20
2017-11-21T02:55:39.328Z,87.10
2017-11-21T02:58:06.784Z,87.20
2017-11-21T03:00:34.279Z,87.20
2017-11-21T03:03:01.740Z,87.20
2017-11-21T03:05:29.971Z,86.90
2017-11-21T03:07:57.458Z,87.00
2017-11-21T03:10:24.960Z,87.00
2017-11-21T03:12:52.433Z,87.00
2017-11-21T03:15:19.930Z,86.90
2017-11-21T03:17:47.381Z,86.90
2017-11-21T03:20:26.817Z,87.20
2017-11-21T03:23:06.140Z,86.80
2017-11-21T03:25:45.696Z,86.50
2017-11-21T03:28:13.164Z,86.50
2017-11-21T03:30:40.657Z,86.50
2017-11-21T03:33:08.881Z,86.80
2017-11-21T03:35:36.372Z,86.80
2017-11-21T03:38:03.833Z,86.40
2017-11-21T03:40:32.073Z,86.40
2017-11-21T03:42:59.567Z,86.40
2017-11-21T03:45:27.809Z,86.00
2017-11-21T03:47:55.312Z,86.00
2017-11-21T03:50:23.553Z,85.80
2017-11-21T03:52:51.023Z,85.80
2017-11-21T03:55:18.511Z,86.20
2017-11-21T03:57:46.736Z,86.10
2017-11-21T04:00:14.256Z,86.10
2017-11-21T04:02:42.473Z,86.00
2017-11-21T04:05:09.973Z,86.00
2017-11-21T04:07:38.192Z,86.40
2017-11-21T04:10:05.664Z,86.40
2017-11-21T04:12:33.151Z,86.70
2017-11-21T04:15:00.608Z,87.00
2017-11-21T04:17:28.069Z,86.80
2017-11-21T04:19:55.593Z,86.50
2017-11-21T04:22:23.060Z,86.90
2017-11-21T04:24:50.549Z,86.60
2017-11-21T04:27:17.995Z,86.80
2017-11-21T04:29:45.498Z,87.00
2017-11-21T04:32:12.976Z,86.70
2017-11-21T04:34:40.448Z,86.90
2017-11-21T04:37:07.968Z,87.00
2017-11-21T04:39:36.202Z,87.00
2017-11-21T04:42:03.696Z,87.00
2017-11-21T04:44:31.222Z,87.20
2017-11-21T04:46:58.701Z,87.20
2017-11-21T04:49:26.956Z,87.30
2017-11-21T04:51:54.416Z,87.20
2017-11-21T04:54:21.910Z,87.40
2017-11-21T04:56:50.149Z,87.60
2017-11-21T04:59:17.659Z,87.60
2017-11-21T05:01:45.125Z,87.80
2017-11-21T05:04:12.612Z,87.80
2017-11-21T05:06:40.088Z,87.70
2017-11-21T05:09:07.574Z,87.70
2017-11-21T05:11:35.826Z,87.50
2017-11-21T05:14:03.292Z,87.60
2017-11-21T05:16:30.808Z,87.40
2017-11-21T05:18:58.268Z,87.50
2017-11-21T05:21:25.761Z,87.50
2017-11-21T05:23:53.223Z,87.50
2017-11-21T05:26:20.687Z,87.40
2017-11-21T05:28:48.945Z,87.60
2017-11-21T05:31:16.453Z,87.70
2017-11-21T05:33:43.941Z,87.60
2017-11-21T05:36:11.408Z,87.40
2017-11-21T05:38:38.896Z,87.50
2017-11-21T05:41:07.120Z,88.00
2017-11-21T05:43:34.621Z,88.00
2017-11-21T05:46:02.100Z,88.00
2017-11-21T05:48:30.325Z,87.90
2017-11-21T05:50:57.810Z,87.90
2017-11-21T05:53:25.275Z,87.80
2017-11-21T05:55:52.782Z,87.80
2017-11-21T05:58:20.279Z,87.70
2017-11-21T06:00:47.744Z,87.70
2017-11-21T06:03:15.272Z,87.70
2017-11-21T06:05:42.738Z,87.80
2017-11-21T06:08:10.208Z,87.90
2017-11-21T06:10:37.690Z,87.80
2017-11-21T06:13:05.144Z,87.80
2017-11-21T06:15:32.633Z,87.70
2017-11-21T06:18:00.116Z,87.60
2017-11-21T06:20:27.595Z,87.90
2017-11-21T06:22:55.066Z,87.90
2017-11-21T06:25:22.571Z,87.70
2017-11-21T06:27:50.028Z,87.30
2017-11-21T06:30:17.516Z,87.50
2017-11-21T06:32:45.025Z,87.70
2017-11-21T06:35:13.251Z,87.70
2017-11-21T06:37:40.738Z,87.70
2017-11-21T06:40:08.202Z,87.80
2017-11-21T06:42:35.692Z,87.90
2017-11-21T06:45:03.161Z,88.00
2017-11-21T06:47:30.639Z,87.90
2017-11-21T06:49:58.117Z,88.00
2017-11-21T06:52:25.578Z,87.90
2017-11-21T06:54:53.066Z,87.90
2017-11-21T06:57:21.337Z,88.00
2017-11-21T06:59:48.825Z,88.00
2017-11-21T07:02:16.320Z,87.90
2017-11-21T07:04:43.781Z,87.90
2017-11-21T07:07:11.289Z,88.00
2017-11-21T07:09:39.546Z,88.10
2017-11-21T07:12:07.001Z,88.10
2017-11-21T07:14:34.489Z,87.90
2017-11-21T07:17:02.010Z,87.80
2017-11-21T07:19:29.508Z,87.80
2017-11-21T07:21:56.967Z,87.80
2017-11-21T07:24:24.423Z,87.90
2017-11-21T07:26:51.932Z,87.90
2017-11-21T07:29:19.433Z,88.00
2017-11-21T07:31:47.679Z,88.00
2017-11-21T07:34:15.190Z,88.00
2017-11-21T07:36:42.649Z,88.00
2017-11-21T07:39:10.131Z,88.00
2017-11-21T07:41:37.640Z,88.10
2017-11-21T07:44:05.883Z,88.10
2017-11-21T07:46:33.382Z,88.20
2017-11-21T07:49:00.880Z,88.20
2017-11-21T07:51:28.333Z,88.30
2017-11-21T07:53:55.808Z,88.10
2017-11-21T07:56:23.301Z,88.40
2017-11-21T07:58:51.526Z,88.20
2017-11-21T08:01:18.992Z,88.30
2017-11-21T08:03:46.488Z,88.00
2017-11-21T08:06:14.008Z,87.60
2017-11-21T08:08:41.498Z,87.50
2017-11-21T08:11:09.008Z,87.40
2017-11-21T08:13:36.547Z,87.40
2017-11-21T08:16:04.810Z,87.40
2017-11-21T08:18:33.045Z,87.40
2017-11-21T08:21:00.540Z,87.40
2017-11-21T08:23:28.784Z,87.40
2017-11-21T08:25:56.241Z,87.40
2017-11-21T08:28:23.727Z,87.40
2017-11-21T08:30:52.010Z,87.30
2017-11-21T08:33:20.259Z,87.30
2017-11-21T08:35:47.752Z,87.30
2017-11-21T08:38:15.999Z,87.20
2017-11-21T08:40:43.489Z,87.20
2017-11-21T08:43:11.762Z,87.10
2017-11-21T08:45:39.976Z,87.10
2017-11-21T08:48:07.443Z,87.10
2017-11-21T08:50:34.934Z,87.10
2017-11-21T08:53:02.398Z,87.20
2017-11-21T08:55:29.852Z,87.20
2017-11-21T08:57:57.340Z,87.20
2017-11-21T09:00:24.848Z,87.30
2017-11-21T09:02:52.347Z,87.40
2017-11-21T09:05:20.609Z,87.40
2017-11-21T09:07:48.079Z,87.40
2017-11-21T09:10:16.314Z,87.50
2017-11-21T09:12:43.804Z,87.50
2017-11-21T09:15:12.057Z,77.80
2017-11-21T09:17:40.504Z,77.80
2017-11-21T09:20:07.975Z,78.00
2017-11-21T09:22:35.469Z,78.10
2017-11-21T09:25:02.971Z,78.30
2017-11-21T09:27:30.499Z,78.40
2017-11-21T09:29:58.811Z,78.50
2017-11-21T09:32:26.298Z,78.50
2017-11-21T09:34:53.815Z,78.40
2017-11-21T09:37:21.263Z,78.70
2017-11-21T09:39:49.562Z,78.80
2017-11-21T09:42:17.025Z,78.80
2017-11-21T09:44:44.527Z,78.70
2017-11-21T09:47:12.024Z,78.70
2017-11-21T09:49:40.251Z,78.80
2017-11-21T09:52:07.730Z,78.80
2017-11-21T09:54:35.204Z,78.80
2017-11-21T09:57:03.510Z,79.10
2017-11-21T09:59:30.966Z,79.10
2017-11-21T10:01:58.453Z,78.90
2017-11-21T10:04:25.936Z,78.80
2017-11-21T10:06:53.422Z,78.70
2017-11-21T10:09:21.683Z,78.80
2017-11-21T10:11:49.912Z,78.80
2017-11-21T10:14:17.403Z,78.80
2017-11-21T10:16:44.928Z,78.90
2017-11-21T10:19:12.420Z,78.60
2017-11-21T10:21:39.921Z,79.00
2017-11-21T10:24:07.399Z,79.00
2017-11-21T10:26:34.923Z,78.40
2017-11-21T10:29:03.149Z,78.90
2017-11-21T10:31:30.612Z,78.90
2017-11-21T10:33:58.114Z,78.80
2017-11-21T10:36:26.368Z,78.60
2017-11-21T10:38:53.870Z,78.60
2017-11-21T10:41:21.338Z,78.80
2017-11-21T10:43:48.865Z,78.90
2017-11-21T10:46:17.101Z,78.70
2017-11-21T10:48:44.565Z,78.70
2017-11-21T10:51:12.069Z,78.70
2017-11-21T10:53:40.339Z,79.10
2017-11-21T10:56:08.582Z,79.00
2017-11-21T10:58:36.056Z,79.00
2017-11-21T11:01:03.535Z,78.90
2017-11-21T11:03:31.752Z,79.00
2017-11-21T11:05:59.258Z,79.00
2017-11-21T11:08:26.731Z,79.00
2017-11-21T11:10:54.992Z,79.00
2017-11-21T11:13:23.253Z,78.90
2017-11-21T11:15:50.743Z,78.90
2017-11-21T11:18:18.223Z,79.10
2017-11-21T11:20:45.723Z,79.10
2017-11-21T11:23:13.207Z,78.80
2017-11-21T11:25:41.428Z,78.90
2017-11-21T11:28:08.923Z,78.90
2017-11-21T11:30:36.380Z,79.00
2017-11-21T11:33:03.911Z,79.20
2017-11-21T11:35:31.414Z,79.10
2017-11-21T11:37:59.014Z,78.70
2017-11-21T11:40:26.489Z,79.20
2017-11-21T11:42:53.963Z,79.10
2017-11-21T11:45:21.442Z,79.10
2017-11-21T11:47:48.949Z,79.10
2017-11-21T11:50:16.448Z,79.20
2017-11-21T11:52:43.916Z,79.30
2017-11-21T11:55:11.417Z,79.20
2017-11-21T11:57:38.920Z,79.30
2017-11-21T12:00:06.420Z,79.40
2017-11-21T12:02:34.680Z,79.40
2017-11-21T12:05:02.931Z,79.30
2017-11-21T12:07:30.439Z,79.40
2017-11-21T12:09:57.943Z,79.50
2017-11-21T12:12:25.472Z,79.40
2017-11-21T12:14:53.005Z,79.40
2017-11-21T12:17:21.237Z,79.20
2017-11-21T12:19:48.742Z,79.20
2017-11-21T12:22:16.249Z,79.10
2017-11-21T12:24:43.760Z,78.90
2017-11-21T12:27:11.256Z,78.70
2017-11-21T12:29:38.740Z,78.60
2017-11-21T12:32:06.240Z,78.60
2017-11-21T12:34:34.485Z,78.50
2017-11-21T12:37:01.953Z,78.50
2017-11-21T12:39:29.448Z,78.50
2017-11-21T12:41:56.933Z,78.80
2017-11-21T12:44:24.448Z,78.90
2017-11-21T12:46:51.946Z,79.10
2017-11-21T12:49:19.399Z,79.20
2017-11-21T12:51:46.897Z,79.40
2017-11-21T12:54:14.376Z,79.40
2017-11-21T12:56:42.656Z,79.60
2017-11-21T12:59:10.901Z,79.40
2017-11-21T13:01:38.417Z,79.50
2017-11-21T13:04:06.029Z,79.20
2017-11-21T13:06:33.505Z,79.10
2017-11-21T13:09:01.793Z,78.70
2017-11-21T13:11:30.032Z,78.80
2017-11-21T13:13:57.575Z,78.80
2017-11-21T13:16:25.078Z,78.80
2017-11-21T13:18:53.349Z,79.30
2017-11-21T13:21:21.628Z,79.70
2017-11-21T13:23:49.871Z,79.80
2017-11-21T13:26:17.371Z,79.80
2017-11-21T13:28:45.611Z,80.00
2017-11-21T13:31:13.117Z,80.00
2017-11-21T13:33:40.580Z,80.00
2017-11-21T13:36:08.093Z,80.10
2017-11-21T13:38:35.569Z,80.20
2017-11-21T13:41:03.801Z,80.00
2017-11-21T13:43:31.297Z,80.00
2017-11-21T13:45:59.568Z,80.00
2017-11-21T13:48:27.068Z,80.00
2017-11-21T13:50:54.548Z,80.10
2017-11-21T13:53:22.053Z,80.10
2017-11-21T13:55:49.518Z,80.00
2017-11-21T13:58:17.758Z,79.90
2017-11-21T14:00:45.269Z,79.90
2017-11-21T14:03:12.734Z,79.50
2017-11-21T14:05:40.308Z,79.30
2017-11-21T14:08:07.784Z,79.40
2017-11-21T14:10:35.299Z,79.50
2017-11-21T14:13:03.528Z,79.20
2017-11-21T14:15:31.051Z,79.20
2017-11-21T14:17:58.541Z,79.50
2017-11-21T14:20:26.021Z,79.60
2017-11-21T14:22:53.580Z,79.60
2017-11-21T14:25:21.066Z,79.60
2017-11-21T14:27:49.334Z,79.50
2017-11-21T14:30:17.597Z,79.50
2017-11-21T14:32:45.110Z,79.50
2017-11-21T14:35:13.690Z,79.40
2017-11-21T14:37:41.173Z,79.50
2017-11-21T14:40:08.668Z,79.70
2017-11-21T14:42:36.929Z,79.60
2017-11-21T14:45:04.428Z,79.60
2017-11-21T14:47:31.912Z,79.60
2017-11-21T14:49:59.436Z,79.50
2017-11-21T14:52:27.704Z,79.50
2017-11-21T14:54:55.985Z,79.50
2017-11-21T14:57:24.249Z,79.40
2017-11-21T14:59:51.735Z,79.40
2017-11-21T15:02:19.244Z,79.40
2017-11-21T15:04:46.739Z,79.30
2017-11-21T15:07:14.980Z,79.30
2017-11-21T15:09:42.471Z,79.30
2017-11-21T15:12:10.720Z,77.20
2017-11-21T15:14:38.234Z,77.20
2017-11-21T15:17:05.700Z,78.20
2017-11-21T15:19:33.217Z,78.00
2017-11-21T15:22:01.472Z,77.70
2017-11-21T15:24:28.984Z,77.70
2017-11-21T15:26:56.452Z,77.10
2017-11-21T15:29:23.967Z,77.80
2017-11-21T15:31:52.214Z,77.10
2017-11-21T15:34:19.694Z,77.10
2017-11-21T15:36:47.201Z,76.10
2017-11-21T15:39:14.678Z,76.90
2017-11-21T15:41:42.227Z,76.00
2017-11-21T15:44:09.694Z,75.00
2017-11-21T15:46:37.172Z,73.50
2017-11-21T15:49:04.673Z,73.10
2017-11-21T15:51:32.929Z,72.90
2017-11-21T15:54:00.449Z,72.90
2017-11-21T15:56:27.935Z,72.80
2017-11-21T15:58:55.433Z,73.00
2017-11-21T16:01:22.920Z,73.40
2017-11-21T16:03:50.469Z,73.00
2017-11-21T16:06:17.940Z,73.40
2017-11-21T16:08:45.508Z,74.10
2017-11-21T16:11:12.997Z,74.50
2017-11-21T16:13:40.483Z,74.30
2017-11-21T16:16:08.022Z,74.80
2017-11-21T16:18:35.536Z,75.20
2017-11-21T16:21:03.041Z,76.20
2017-11-21T16:23:31.304Z,87.10
2017-11-21T16:25:58.801Z,87.10
2017-11-21T16:28:26.370Z,86.70
2017-11-21T16:30:53.835Z,86.10
2017-11-21T16:33:21.362Z,85.90
2017-11-21T16:35:49.604Z,85.10
2017-11-21T16:38:17.101Z,85.10
2017-11-21T16:40:45.389Z,85.90
2017-11-21T16:43:12.872Z,85.90
2017-11-21T16:45:40.373Z,86.30
2017-11-21T16:48:07.848Z,86.60
2017-11-21T16:50:36.131Z,87.60
2017-11-21T16:53:04.428Z,87.70
2017-11-21T16:55:31.897Z,87.70
2017-11-21T16:57:59.433Z,87.90
2017-11-21T17:00:27.681Z,87.70
2017-11-21T17:02:55.184Z,87.70
2017-11-21T17:05:22.675Z,87.70
2017-11-21T17:07:50.179Z,87.50
2017-11-21T17:10:18.466Z,87.70
2017-11-21T17:12:45.954Z,87.70
2017-11-21T17:15:13.441Z,87.60
2017-11-21T17:17:40.937Z,87.70
2017-11-21T17:20:09.218Z,87.80
2017-11-21T17:22:38.291Z,87.80
2017-11-21T17:25:06.579Z,87.90
2017-11-21T17:27:34.827Z,87.70
2017-11-21T17:30:02.336Z,87.70
2017-11-21T17:32:29.827Z,87.70
2017-11-21T17:34:57.364Z,87.70
2017-11-21T17:37:24.902Z,87.70
2017-11-21T17:39:53.157Z,87.50
2017-11-21T17:42:20.714Z,87.50
2017-11-21T17:44:48.237Z,87.30
2017-11-21T17:47:15.763Z,87.40
2017-11-21T17:49:43.236Z,87.50
2017-11-21T17:52:10.701Z,87.50
2017-11-21T17:54:38.210Z,87.30
2017-11-21T17:57:05.702Z,87.60
2017-11-21T17:59:33.247Z,87.40
2017-11-21T18:02:01.533Z,87.60
2017-11-21T18:04:29.832Z,87.40
2017-11-21T18:06:57.344Z,87.40
2017-11-21T18:09:24.826Z,87.40
2017-11-21T18:11:53.148Z,87.20
2017-11-21T18:14:20.631Z,87.20
2017-11-21T18:16:48.152Z,87.40
2017-11-21T18:19:15.612Z,87.30
2017-11-21T18:21:43.137Z,87.30
2017-11-21T18:24:11.859Z,87.30
2017-11-21T18:26:39.334Z,87.30
2017-11-21T18:29:06.872Z,87.30
2017-11-21T18:31:34.376Z,87.30
2017-11-21T18:34:01.880Z,87.40
2017-11-21T18:36:29.371Z,87.40
2017-11-21T18:38:56.833Z,87.30
2017-11-21T18:41:24.373Z,87.30
2017-11-21T18:43:51.889Z,87.30
2017-11-21T18:46:20.170Z,87.20
2017-11-21T18:48:48.433Z,87.20
2017-11-21T18:51:16.760Z,87.30
2017-11-21T18:53:44.234Z,87.30
2017-11-21T18:56:11.805Z,87.30
2017-11-21T18:58:39.304Z,87.30
2017-11-21T19:01:07.916Z,87.30
2017-11-21T19:03:35.428Z,87.30
2017-11-21T19:06:03.806Z,87.10
2017-11-21T19:08:31.287Z,87.20
2017-11-21T19:10:59.565Z,87.20
2017-11-21T19:13:27.809Z,87.20
2017-11-21T19:15:55.329Z,87.20
2017-11-21T19:18:22.796Z,87.20
2017-11-21T19:20:50.341Z,87.10
2017-11-21T19:23:17.809Z,87.10
2017-11-21T19:25:45.278Z,87.20
2017-11-21T19:28:12.811Z,87.20
2017-11-21T19:30:40.285Z,86.90
2017-11-21T19:33:07.808Z,87.00
2017-11-21T19:35:36.061Z,86.90
2017-11-21T19:38:03.565Z,86.90
2017-11-21T19:40:31.077Z,86.90
2017-11-21T19:42:58.552Z,87.00
2017-11-21T19:45:26.893Z,86.90
2017-11-21T19:47:54.393Z,86.90
2017-11-21T19:50:22.625Z,87.00
2017-11-21T19:52:50.161Z,87.00
2017-11-21T19:55:17.628Z,87.00
2017-11-21T19:57:45.113Z,87.00
2017-11-21T20:00:12.624Z,86.90
2017-11-21T20:02:41.473Z,87.00
2017-11-21T20:05:08.993Z,87.00
2017-11-21T20:07:36.454Z,86.80
2017-11-21T20:10:04.011Z,86.80
2017-11-21T20:12:31.518Z,86.70
2017-11-21T20:14:59.022Z,86.60
2017-11-21T20:17:26.507Z,86.70
2017-11-21T20:19:54.007Z,86.60
2017-11-21T20:22:22.252Z,86.40
2017-11-21T20:24:49.723Z,86.40
2017-11-21T20:27:17.244Z,86.50
2017-11-21T20:29:44.714Z,86.40
2017-11-21T20:32:12.213Z,86.30
2017-11-21T20:34:40.497Z,85.90
2017-11-21T20:37:08.733Z,86.30
2017-11-21T20:39:36.384Z,86.30
2017-11-21T20:42:03.941Z,86.20
2017-11-21T20:44:31.608Z,86.30
2017-11-21T20:46:59.154Z,85.80
2017-11-21T20:49:26.635Z,86.20
2017-11-21T20:51:54.131Z,85.90
2017-11-21T20:54:22.407Z,86.10
2017-11-21T20:56:50.687Z,85.90
2017-11-21T20:59:19.008Z,86.00
2017-11-21T21:01:46.547Z,86.00
2017-11-21T21:04:14.125Z,85.70
2017-11-21T21:06:41.637Z,85.60
2017-11-21T21:09:09.203Z,85.30
2017-11-21T21:11:37.507Z,85.20
2017-11-21T21:14:05.080Z,85.20
2017-11-21T21:16:32.571Z,85.50
2017-11-21T21:19:00.125Z,85.40
2017-11-21T21:21:27.611Z,85.40
2017-11-21T21:23:55.156Z,85.50
2017-11-21T21:26:22.687Z,85.40
2017-11-21T21:28:50.259Z,85.50
2017-11-21T21:31:17.739Z,85.30
2017-11-21T21:33:45.260Z,85.40
2017-11-21T21:36:12.770Z,85.40
2017-11-21T21:38:41.050Z,85.20
2017-11-21T21:41:09.296Z,85.40
2017-11-21T21:43:36.781Z,85.40
2017-11-21T21:46:04.282Z,85.30
2017-11-21T21:48:31.752Z,85.10
2017-11-21T21:50:59.271Z,85.70
2017-11-21T21:53:27.544Z,85.60
2017-11-21T21:55:55.787Z,85.10
2017-11-21T21:58:23.297Z,85.20
2017-11-21T22:00:50.769Z,85.50
2017-11-21T22:03:18.308Z,85.50
2017-11-21T22:05:45.822Z,85.40
2017-11-21T22:08:13.309Z,85.40
2017-11-21T22:10:41.549Z,84.80
2017-11-21T22:13:09.064Z,84.90
2017-11-21T22:15:36.549Z,84.40
2017-11-21T22:18:04.063Z,84.00
2017-11-21T22:20:32.338Z,84.60
2017-11-21T22:23:00.579Z,84.40
2017-11-21T22:25:28.087Z,84.40
2017-11-21T22:27:56.318Z,83.60
2017-11-21T22:30:23.832Z,83.50
2017-11-21T22:32:51.320Z,84.20
2017-11-21T22:35:18.817Z,84.70
2017-11-21T22:37:49.353Z,84.90
2017-11-21T22:40:17.448Z,85.00
2017-11-21T22:42:44.952Z,85.30
2017-11-21T22:45:12.416Z,85.20
2017-11-21T22:47:42.960Z,85.20
2017-11-21T22:50:10.658Z,85.10
2017-11-21T22:52:38.903Z,85.00
2017-11-21T22:55:06.425Z,85.10
2017-11-21T22:57:34.031Z,84.80
2017-11-21T23:00:02.331Z,84.90
2017-11-21T23:02:30.597Z,84.90
2017-11-21T23:04:58.855Z,84.80
2017-11-21T23:07:26.370Z,84.80
2017-11-21T23:09:53.872Z,84.70
2017-11-21T23:12:21.416Z,84.50
2017-11-21T23:14:48.880Z,84.50
2017-11-21T23:17:16.371Z,84.60
2017-11-21T23:19:44.624Z,84.50
2017-11-21T23:22:12.110Z,84.50
2017-11-21T23:24:40.373Z,84.40
2017-11-21T23:27:08.625Z,84.80
2017-11-21T23:29:36.117Z,84.80
2017-11-21T23:32:04.376Z,84.70
2017-11-21T23:34:31.899Z,84.70
2017-11-21T23:36:59.366Z,84.90
2017-11-21T23:39:26.859Z,84.80
2017-11-21T23:41:55.177Z,84.60
2017-11-21T23:44:22.665Z,84.60
2017-11-21T23:46:50.128Z,84.80
2017-11-21T23:49:17.601Z,84.70
2017-11-21T23:51:45.103Z,84.60
2017-11-21T23:54:12.590Z,84.30
2017-11-21T23:56:40.081Z,84.20
2017-11-21T23:59:07.570Z,84.40
